sensor_id;sensor_type;location;lat;lon;timestamp;pressure;altitude;pressure_sealevel;temperature;humidity
67457;BME280;54319;52.038;4.640;2022-08-01T00:01:52;101774.22;;;17.91;100.00
67457;BME280;54319;52.038;4.640;2022-08-01T00:04:19;101772.44;;;17.91;100.00
67457;BME280;54319;52.038;4.640;2022-08-01T00:06:47;101774.19;;;17.92;100.00
67457;BME280;54319;52.038;4.640;2022-08-01T00:09:14;101775.06;;;17.93;100.00
67457;BME280;54319;52.038;4.640;2022-08-01T00:11:41;101779.47;;;17.94;100.00
67457;BME280;54319;52.038;4.640;2022-08-01T00:14:08;101780.38;;;17.91;100.00
67457;BME280;54319;52.038;4.640;2022-08-01T00:16:36;101779.50;;;17.92;100.00
67457;BME280;54319;52.038;4.640;2022-08-01T00:19:03;101783.00;;;17.93;100.00
67457;BME280;54319;52.038;4.640;2022-08-01T00:21:30;101784.78;;;17.92;100.00
67457;BME280;54319;52.038;4.640;2022-08-01T00:23:58;101787.44;;;17.92;100.00
67457;BME280;54319;52.038;4.640;2022-08-01T00:26:25;101789.25;;;17.90;100.00
67457;BME280;54319;52.038;4.640;2022-08-01T00:28:52;101785.66;;;17.93;100.00
67457;BME280;54319;52.038;4.640;2022-08-01T00:31:19;101787.47;;;17.91;100.00
67457;BME280;54319;52.038;4.640;2022-08-01T00:33:45;101788.41;;;17.90;100.00
67457;BME280;54319;52.038;4.640;2022-08-01T00:36:12;101791.91;;;17.90;100.00
67457;BME280;54319;52.038;4.640;2022-08-01T00:38:39;101793.66;;;17.91;100.00
67457;BME280;54319;52.038;4.640;2022-08-01T00:41:07;101787.47;;;17.91;100.00
67457;BME280;54319;52.038;4.640;2022-08-01T00:43:34;101783.03;;;17.91;100.00
67457;BME280;54319;52.038;4.640;2022-08-01T00:46:01;101790.13;;;17.91;100.00
67457;BME280;54319;52.038;4.640;2022-08-01T00:48:28;101784.81;;;17.91;100.00
67457;BME280;54319;52.038;4.640;2022-08-01T00:50:55;101783.03;;;17.91;100.00
67457;BME280;54319;52.038;4.640;2022-08-01T00:53:22;101788.41;;;17.90;100.00
67457;BME280;54319;52.038;4.640;2022-08-01T00:55:49;101780.38;;;17.91;100.00
67457;BME280;54319;52.038;4.640;2022-08-01T00:58:18;101779.50;;;17.92;100.00
67457;BME280;54319;52.038;4.640;2022-08-01T01:00:44;101784.81;;;17.91;100.00
67457;BME280;54319;52.038;4.640;2022-08-01T01:03:12;101788.34;;;17.91;100.00
67457;BME280;54319;52.038;4.640;2022-08-01T01:05:45;101783.97;;;17.90;100.00
67457;BME280;54319;52.038;4.640;2022-08-01T01:08:19;101784.78;;;17.92;100.00
67457;BME280;54319;52.038;4.640;2022-08-01T01:10:52;101780.38;;;17.91;100.00
67457;BME280;54319;52.038;4.640;2022-08-01T01:13:28;101777.81;;;17.90;100.00
67457;BME280;54319;52.038;4.640;2022-08-01T01:16:03;101776.97;;;17.88;100.00
67457;BME280;54319;52.038;4.640;2022-08-01T01:18:34;101776.03;;;17.89;100.00
67457;BME280;54319;52.038;4.640;2022-08-01T01:21:07;101779.53;;;17.91;100.00
67457;BME280;54319;52.038;4.640;2022-08-01T01:23:46;101780.47;;;17.88;100.00
67457;BME280;54319;52.038;4.640;2022-08-01T01:26:35;101779.69;;;17.85;100.00
67457;BME280;54319;52.038;4.640;2022-08-01T01:29:11;101775.41;;;17.79;100.00
67457;BME280;54319;52.038;4.640;2022-08-01T01:31:43;101774.53;;;17.79;100.00
67457;BME280;54319;52.038;4.640;2022-08-01T01:34:13;101777.34;;;17.72;100.00
67457;BME280;54319;52.038;4.640;2022-08-01T01:36:42;101777.38;;;17.71;100.00
67457;BME280;54319;52.038;4.640;2022-08-01T01:39:11;101779.19;;;17.69;100.00
67457;BME280;54319;52.038;4.640;2022-08-01T01:41:40;101779.28;;;17.66;100.00
67457;BME280;54319;52.038;4.640;2022-08-01T01:44:10;101782.88;;;17.63;100.00
67457;BME280;54319;52.038;4.640;2022-08-01T01:46:38;101783.81;;;17.61;100.00
67457;BME280;54319;52.038;4.640;2022-08-01T01:49:08;101791.81;;;17.59;100.00
67457;BME280;54319;52.038;4.640;2022-08-01T01:51:37;101786.56;;;17.56;100.00
67457;BME280;54319;52.038;4.640;2022-08-01T01:54:07;101788.38;;;17.56;100.00
67457;BME280;54319;52.038;4.640;2022-08-01T01:56:35;101794.53;;;17.56;100.00
67457;BME280;54319;52.038;4.640;2022-08-01T01:59:17;101791.00;;;17.56;100.00
67457;BME280;54319;52.038;4.640;2022-08-01T02:01:46;101797.25;;;17.55;100.00
67457;BME280;54319;52.038;4.640;2022-08-01T02:04:14;101792.84;;;17.53;100.00
67457;BME280;54319;52.038;4.640;2022-08-01T02:06:42;101793.75;;;17.52;100.00
67457;BME280;54319;52.038;4.640;2022-08-01T02:09:11;101787.56;;;17.52;100.00
67457;BME280;54319;52.038;4.640;2022-08-01T02:11:38;101785.84;;;17.51;100.00
67457;BME280;54319;52.038;4.640;2022-08-01T02:14:07;101787.63;;;17.50;100.00
67457;BME280;54319;52.038;4.640;2022-08-01T02:16:40;101786.69;;;17.51;100.00
67457;BME280;54319;52.038;4.640;2022-08-01T02:19:08;101787.63;;;17.50;100.00
67457;BME280;54319;52.038;4.640;2022-08-01T02:21:39;101790.28;;;17.50;100.00
67457;BME280;54319;52.038;4.640;2022-08-01T02:24:12;101786.78;;;17.48;100.00
67457;BME280;54319;52.038;4.640;2022-08-01T02:26:42;101794.75;;;17.47;100.00
67457;BME280;54319;52.038;4.640;2022-08-01T02:29:15;101797.50;;;17.44;100.00
67457;BME280;54319;52.038;4.640;2022-08-01T02:31:45;101787.84;;;17.41;100.00
67457;BME280;54319;52.038;4.640;2022-08-01T02:34:17;101789.59;;;17.41;100.00
67457;BME280;54319;52.038;4.640;2022-08-01T02:36:45;101794.88;;;17.42;100.00
67457;BME280;54319;52.038;4.640;2022-08-01T02:39:16;101791.41;;;17.40;100.00
67457;BME280;54319;52.038;4.640;2022-08-01T02:41:46;101786.13;;;17.39;100.00
67457;BME280;54319;52.038;4.640;2022-08-01T02:44:19;101790.59;;;17.37;100.00
67457;BME280;54319;52.038;4.640;2022-08-01T02:46:53;101802.97;;;17.36;100.00
67457;BME280;54319;52.038;4.640;2022-08-01T02:49:22;101798.63;;;17.33;100.00
67457;BME280;54319;52.038;4.640;2022-08-01T02:51:52;101801.28;;;17.33;100.00
67457;BME280;54319;52.038;4.640;2022-08-01T02:54:22;101795.13;;;17.31;100.00
67457;BME280;54319;52.038;4.640;2022-08-01T02:56:50;101792.50;;;17.30;100.00
67457;BME280;54319;52.038;4.640;2022-08-01T02:59:20;101790.78;;;17.29;100.00
67457;BME280;54319;52.038;4.640;2022-08-01T03:01:53;101789.13;;;17.25;100.00
67457;BME280;54319;52.038;4.640;2022-08-01T03:04:22;101790.06;;;17.22;100.00
67457;BME280;54319;52.038;4.640;2022-08-01T03:06:50;101791.00;;;17.20;100.00
67457;BME280;54319;52.038;4.640;2022-08-01T03:09:19;101796.38;;;17.17;100.00
67457;BME280;54319;52.038;4.640;2022-08-01T03:11:46;101800.81;;;17.15;100.00
67457;BME280;54319;52.038;4.640;2022-08-01T03:14:15;101799.13;;;17.12;100.00
67457;BME280;54319;52.038;4.640;2022-08-01T03:16:44;101805.34;;;17.11;100.00
67457;BME280;54319;52.038;4.640;2022-08-01T03:19:15;101807.16;;;17.09;100.00
67457;BME280;54319;52.038;4.640;2022-08-01T03:21:45;101811.59;;;17.08;100.00
67457;BME280;54319;52.038;4.640;2022-08-01T03:24:14;101811.63;;;17.05;100.00
67457;BME280;54319;52.038;4.640;2022-08-01T03:26:41;101817.84;;;17.04;100.00
67457;BME280;54319;52.038;4.640;2022-08-01T03:29:13;101798.41;;;17.05;100.00
67457;BME280;54319;52.038;4.640;2022-08-01T03:31:43;101808.97;;;17.05;100.00
67457;BME280;54319;52.038;4.640;2022-08-01T03:34:11;101809.91;;;17.04;100.00
67457;BME280;54319;52.038;4.640;2022-08-01T03:36:44;101812.59;;;17.01;100.00
67457;BME280;54319;52.038;4.640;2022-08-01T03:39:14;101805.59;;;17.00;100.00
67457;BME280;54319;52.038;4.640;2022-08-01T03:41:46;101818.78;;;17.02;100.00
67457;BME280;54319;52.038;4.640;2022-08-01T03:44:18;101812.59;;;17.01;100.00
67457;BME280;54319;52.038;4.640;2022-08-01T03:46:48;101809.19;;;16.98;100.00
67457;BME280;54319;52.038;4.640;2022-08-01T03:49:19;101810.00;;;17.00;100.00
67457;BME280;54319;52.038;4.640;2022-08-01T03:51:49;101812.69;;;16.98;100.00
67457;BME280;54319;52.038;4.640;2022-08-01T03:54:21;101803.88;;;16.98;100.00
67457;BME280;54319;52.038;4.640;2022-08-01T03:56:51;101799.44;;;16.98;100.00
67457;BME280;54319;52.038;4.640;2022-08-01T03:59:18;101802.13;;;16.97;100.00
67457;BME280;54319;52.038;4.640;2022-08-01T04:01:47;101805.69;;;16.96;100.00
67457;BME280;54319;52.038;4.640;2022-08-01T04:04:14;101805.72;;;16.94;100.00
67457;BME280;54319;52.038;4.640;2022-08-01T04:06:42;101807.47;;;16.95;100.00
67457;BME280;54319;52.038;4.640;2022-08-01T04:09:11;101805.69;;;16.96;100.00
67457;BME280;54319;52.038;4.640;2022-08-01T04:11:38;101805.69;;;16.96;100.00
67457;BME280;54319;52.038;4.640;2022-08-01T04:14:06;101799.56;;;16.94;100.00
67457;BME280;54319;52.038;4.640;2022-08-01T04:16:33;101797.78;;;16.92;100.00
67457;BME280;54319;52.038;4.640;2022-08-01T04:19:00;101807.53;;;16.92;100.00
67457;BME280;54319;52.038;4.640;2022-08-01T04:21:28;101806.56;;;16.95;100.00
67457;BME280;54319;52.038;4.640;2022-08-01T04:24:00;101810.97;;;16.97;100.00
67457;BME280;54319;52.038;4.640;2022-08-01T04:26:32;101811.84;;;16.96;100.00
67457;BME280;54319;52.038;4.640;2022-08-01T04:29:00;101811.88;;;16.95;100.00
67457;BME280;54319;52.038;4.640;2022-08-01T04:31:28;101812.75;;;16.95;100.00
67457;BME280;54319;52.038;4.640;2022-08-01T04:33:58;101810.97;;;16.97;100.00
67457;BME280;54319;52.038;4.640;2022-08-01T04:36:27;101822.41;;;16.98;100.00
67457;BME280;54319;52.038;4.640;2022-08-01T04:38:59;101816.19;;;16.99;100.00
67457;BME280;54319;52.038;4.640;2022-08-01T04:41:27;101821.38;;;17.03;100.00
67457;BME280;54319;52.038;4.640;2022-08-01T04:43:56;101823.97;;;17.06;100.00
67457;BME280;54319;52.038;4.640;2022-08-01T04:46:24;101832.75;;;17.08;100.00
67457;BME280;54319;52.038;4.640;2022-08-01T04:48:52;101823.84;;;17.13;100.00
67457;BME280;54319;52.038;4.640;2022-08-01T04:51:20;101834.38;;;17.14;100.00
67457;BME280;54319;52.038;4.640;2022-08-01T04:53:48;101829.91;;;17.18;100.00
67457;BME280;54319;52.038;4.640;2022-08-01T04:56:16;101828.94;;;17.22;100.00
67457;BME280;54319;52.038;4.640;2022-08-01T04:58:44;101838.56;;;17.24;100.00
67457;BME280;54319;52.038;4.640;2022-08-01T05:01:13;101827.97;;;17.26;100.00
67457;BME280;54319;52.038;4.640;2022-08-01T05:03:40;101832.31;;;17.28;100.00
67457;BME280;54319;52.038;4.640;2022-08-01T05:06:07;101835.78;;;17.30;100.00
67457;BME280;54319;52.038;4.640;2022-08-01T05:08:34;101840.16;;;17.31;100.00
67457;BME280;54319;52.038;4.640;2022-08-01T05:11:01;101839.22;;;17.34;100.00
67457;BME280;54319;52.038;4.640;2022-08-01T05:13:29;101842.69;;;17.38;100.00
67457;BME280;54319;52.038;4.640;2022-08-01T05:15:55;101841.75;;;17.39;100.00
67457;BME280;54319;52.038;4.640;2022-08-01T05:18:24;101838.19;;;17.41;100.00
67457;BME280;54319;52.038;4.640;2022-08-01T05:20:51;101830.19;;;17.43;100.00
67457;BME280;54319;52.038;4.640;2022-08-01T05:23:19;101833.63;;;17.46;100.00
67457;BME280;54319;52.038;4.640;2022-08-01T05:25:45;101838.00;;;17.47;100.00
67457;BME280;54319;52.038;4.640;2022-08-01T05:28:14;101828.19;;;17.52;100.00
67457;BME280;54319;52.038;4.640;2022-08-01T05:30:40;101836.06;;;17.56;100.00
67457;BME280;54319;52.038;4.640;2022-08-01T05:33:08;101837.72;;;17.60;100.00
67457;BME280;54319;52.038;4.640;2022-08-01T05:35:36;101835.91;;;17.62;100.00
67457;BME280;54319;52.038;4.640;2022-08-01T05:38:03;101836.78;;;17.62;100.00
67457;BME280;54319;52.038;4.640;2022-08-01T05:40:30;101838.53;;;17.63;100.00
67457;BME280;54319;52.038;4.640;2022-08-01T05:42:57;101842.09;;;17.61;100.00
67457;BME280;54319;52.038;4.640;2022-08-01T05:45:23;101845.72;;;17.58;100.00
67457;BME280;54319;52.038;4.640;2022-08-01T05:47:50;101851.97;;;17.56;100.00
67457;BME280;54319;52.038;4.640;2022-08-01T05:50:17;101852.88;;;17.55;100.00
67457;BME280;54319;52.038;4.640;2022-08-01T05:52:46;101851.13;;;17.53;100.00
67457;BME280;54319;52.038;4.640;2022-08-01T05:55:12;101855.59;;;17.51;100.00
67457;BME280;54319;52.038;4.640;2022-08-01T05:57:39;101860.97;;;17.48;100.00
67457;BME280;54319;52.038;4.640;2022-08-01T06:00:07;101871.63;;;17.45;100.00
67457;BME280;54319;52.038;4.640;2022-08-01T06:02:40;101861.88;;;17.47;100.00
67457;BME280;54319;52.038;4.640;2022-08-01T06:05:07;101863.72;;;17.44;100.00
67457;BME280;54319;52.038;4.640;2022-08-01T06:07:34;101866.44;;;17.41;100.00
67457;BME280;54319;52.038;4.640;2022-08-01T06:10:02;101864.69;;;17.41;100.00
67457;BME280;54319;52.038;4.640;2022-08-01T06:12:32;101869.09;;;17.41;100.00
67457;BME280;54319;52.038;4.640;2022-08-01T06:14:58;101870.00;;;17.40;100.00
67457;BME280;54319;52.038;4.640;2022-08-01T06:17:26;101871.78;;;17.39;100.00
67457;BME280;54319;52.038;4.640;2022-08-01T06:19:52;101869.97;;;17.41;100.00
67457;BME280;54319;52.038;4.640;2022-08-01T06:22:19;101874.34;;;17.44;100.00
67457;BME280;54319;52.038;4.640;2022-08-01T06:24:46;101879.44;;;17.51;100.00
67457;BME280;54319;52.038;4.640;2022-08-01T06:27:14;101868.81;;;17.53;100.00
67457;BME280;54319;52.038;4.640;2022-08-01T06:29:41;101876.66;;;17.56;100.00
67457;BME280;54319;52.038;4.640;2022-08-01T06:32:08;101875.59;;;17.65;100.00
67457;BME280;54319;52.038;4.640;2022-08-01T06:34:35;101878.09;;;17.71;100.00
67457;BME280;54319;52.038;4.640;2022-08-01T06:37:04;101881.50;;;17.76;100.00
67457;BME280;54319;52.038;4.640;2022-08-01T06:39:30;101878.75;;;17.81;100.00
67457;BME280;54319;52.038;4.640;2022-08-01T06:41:57;101891.88;;;17.87;100.00
67457;BME280;54319;52.038;4.640;2022-08-01T06:44:25;101883.88;;;17.88;100.00
67457;BME280;54319;52.038;4.640;2022-08-01T06:46:52;101890.09;;;17.87;100.00
67457;BME280;54319;52.038;4.640;2022-08-01T06:49:20;101887.50;;;17.84;100.00
67457;BME280;54319;52.038;4.640;2022-08-01T06:51:47;101894.66;;;17.81;100.00
67457;BME280;54319;52.038;4.640;2022-08-01T06:54:14;101890.28;;;17.78;100.00
67457;BME280;54319;52.038;4.640;2022-08-01T06:56:41;101888.56;;;17.76;100.00
67457;BME280;54319;52.038;4.640;2022-08-01T06:59:08;101893.94;;;17.74;100.00
67457;BME280;54319;52.038;4.640;2022-08-01T07:01:36;101895.69;;;17.73;100.00
67457;BME280;54319;52.038;4.640;2022-08-01T07:04:03;101900.13;;;17.73;100.00
67457;BME280;54319;52.038;4.640;2022-08-01T07:06:30;101907.13;;;17.76;100.00
67457;BME280;54319;52.038;4.640;2022-08-01T07:08:57;101902.78;;;17.73;100.00
67457;BME280;54319;52.038;4.640;2022-08-01T07:11:26;101906.34;;;17.72;100.00
67457;BME280;54319;52.038;4.640;2022-08-01T07:13:53;101909.91;;;17.71;100.00
67457;BME280;54319;52.038;4.640;2022-08-01T07:16:20;101910.75;;;17.71;100.00
67457;BME280;54319;52.038;4.640;2022-08-01T07:18:48;101912.63;;;17.68;100.00
67457;BME280;54319;52.038;4.640;2022-08-01T07:21:15;101911.78;;;17.66;100.00
67457;BME280;54319;52.038;4.640;2022-08-01T07:23:42;101921.44;;;17.68;100.00
67457;BME280;54319;52.038;4.640;2022-08-01T07:26:09;101924.09;;;17.68;100.00
67457;BME280;54319;52.038;4.640;2022-08-01T07:28:36;101915.28;;;17.68;100.00
67457;BME280;54319;52.038;4.640;2022-08-01T07:31:02;101929.19;;;17.76;100.00
67457;BME280;54319;52.038;4.640;2022-08-01T07:33:30;101927.47;;;17.75;100.00
67457;BME280;54319;52.038;4.640;2022-08-01T07:35:58;101939.69;;;17.82;100.00
67457;BME280;54319;52.038;4.640;2022-08-01T07:38:25;101937.03;;;17.82;98.70
67457;BME280;54319;52.038;4.640;2022-08-01T07:40:52;101940.41;;;17.89;98.87
67457;BME280;54319;52.038;4.640;2022-08-01T07:43:20;101938.47;;;17.97;98.22
67457;BME280;54319;52.038;4.640;2022-08-01T07:45:46;101951.56;;;18.05;99.52
67457;BME280;54319;52.038;4.640;2022-08-01T07:48:14;101947.09;;;18.05;98.36
67457;BME280;54319;52.038;4.640;2022-08-01T07:50:41;101949.88;;;18.01;96.98
67457;BME280;54319;52.038;4.640;2022-08-01T07:53:09;101960.31;;;18.07;96.71
67457;BME280;54319;52.038;4.640;2022-08-01T07:55:36;101952.19;;;18.14;95.91
67457;BME280;54319;52.038;4.640;2022-08-01T07:58:03;101959.13;;;18.20;94.30
67457;BME280;54319;52.038;4.640;2022-08-01T08:00:30;101964.38;;;18.22;93.93
67457;BME280;54319;52.038;4.640;2022-08-01T08:02:57;101967.00;;;18.23;92.48
67457;BME280;54319;52.038;4.640;2022-08-01T08:05:24;101965.84;;;18.33;91.31
67457;BME280;54319;52.038;4.640;2022-08-01T08:07:52;101969.09;;;18.45;92.66
67457;BME280;54319;52.038;4.640;2022-08-01T08:10:20;101972.41;;;18.53;92.65
67457;BME280;54319;52.038;4.640;2022-08-01T08:12:48;101964.13;;;18.65;93.10
67457;BME280;54319;52.038;4.640;2022-08-01T08:15:15;101972.75;;;18.73;93.37
67457;BME280;54319;52.038;4.640;2022-08-01T08:17:42;101972.66;;;18.76;92.73
67457;BME280;54319;52.038;4.640;2022-08-01T08:20:09;101971.91;;;18.73;91.53
67457;BME280;54319;52.038;4.640;2022-08-01T08:22:36;101977.22;;;18.71;89.67
67457;BME280;54319;52.038;4.640;2022-08-01T08:25:05;101976.06;;;18.83;91.54
67457;BME280;54319;52.038;4.640;2022-08-01T08:27:35;101976.13;;;18.82;88.44
67457;BME280;54319;52.038;4.640;2022-08-01T08:30:02;101972.56;;;18.81;88.22
67457;BME280;54319;52.038;4.640;2022-08-01T08:32:32;101977.75;;;18.86;89.67
67457;BME280;54319;52.038;4.640;2022-08-01T08:34:59;101979.38;;;18.91;89.82
67457;BME280;54319;52.038;4.640;2022-08-01T08:37:26;101977.41;;;18.98;90.77
67457;BME280;54319;52.038;4.640;2022-08-01T08:39:53;101979.66;;;19.12;89.23
67457;BME280;54319;52.038;4.640;2022-08-01T08:42:20;101976.97;;;19.13;84.48
67457;BME280;54319;52.038;4.640;2022-08-01T08:44:48;101975.72;;;19.25;84.77
67457;BME280;54319;52.038;4.640;2022-08-01T08:47:17;101983.50;;;19.33;83.16
67457;BME280;54319;52.038;4.640;2022-08-01T08:49:44;101977.00;;;19.43;83.43
67457;BME280;54319;52.038;4.640;2022-08-01T08:52:12;101978.25;;;19.59;85.78
67457;BME280;54319;52.038;4.640;2022-08-01T08:54:41;101980.91;;;19.59;82.09
67457;BME280;54319;52.038;4.640;2022-08-01T08:57:08;101986.63;;;19.77;79.24
67457;BME280;54319;52.038;4.640;2022-08-01T08:59:37;101989.50;;;19.97;78.73
67457;BME280;54319;52.038;4.640;2022-08-01T09:02:07;101991.50;;;20.17;77.78
67457;BME280;54319;52.038;4.640;2022-08-01T09:04:35;101995.88;;;20.20;76.94
67457;BME280;54319;52.038;4.640;2022-08-01T09:07:04;101994.63;;;20.30;77.69
67457;BME280;54319;52.038;4.640;2022-08-01T09:09:31;101990.63;;;20.44;79.88
67457;BME280;54319;52.038;4.640;2022-08-01T09:11:58;101992.78;;;20.59;75.38
67457;BME280;54319;52.038;4.640;2022-08-01T09:14:25;102000.91;;;20.81;75.96
67457;BME280;54319;52.038;4.640;2022-08-01T09:17:00;102004.94;;;20.93;74.24
67457;BME280;54319;52.038;4.640;2022-08-01T09:19:36;101995.75;;;21.01;74.55
67457;BME280;54319;52.038;4.640;2022-08-01T09:22:05;102001.38;;;20.92;71.76
67457;BME280;54319;52.038;4.640;2022-08-01T09:24:33;102005.66;;;20.96;72.99
67457;BME280;54319;52.038;4.640;2022-08-01T09:27:01;102003.47;;;21.08;76.19
67457;BME280;54319;52.038;4.640;2022-08-01T09:29:42;102005.66;;;21.21;75.44
67457;BME280;54319;52.038;4.640;2022-08-01T09:32:10;102008.38;;;21.45;75.95
67457;BME280;54319;52.038;4.640;2022-08-01T09:34:38;102009.38;;;21.64;73.99
67457;BME280;54319;52.038;4.640;2022-08-01T09:37:05;102011.25;;;21.84;72.53
67457;BME280;54319;52.038;4.640;2022-08-01T09:39:33;102015.81;;;22.04;68.03
67457;BME280;54319;52.038;4.640;2022-08-01T09:42:19;102018.75;;;22.19;67.43
67457;BME280;54319;52.038;4.640;2022-08-01T09:44:46;102018.09;;;22.14;65.29
67457;BME280;54319;52.038;4.640;2022-08-01T09:47:15;102016.84;;;22.00;65.89
67457;BME280;54319;52.038;4.640;2022-08-01T09:49:44;102011.63;;;21.97;64.87
67457;BME280;54319;52.038;4.640;2022-08-01T09:52:15;102020.34;;;22.02;65.48
67457;BME280;54319;52.038;4.640;2022-08-01T09:54:57;102014.56;;;22.13;67.01
67457;BME280;54319;52.038;4.640;2022-08-01T09:57:26;102014.72;;;22.09;65.67
67457;BME280;54319;52.038;4.640;2022-08-01T09:59:54;102022.81;;;22.07;65.27
67457;BME280;54319;52.038;4.640;2022-08-01T10:02:31;102019.53;;;22.22;67.30
67457;BME280;54319;52.038;4.640;2022-08-01T10:05:00;102012.91;;;22.53;64.80
67457;BME280;54319;52.038;4.640;2022-08-01T10:07:27;102011.25;;;22.71;63.28
67457;BME280;54319;52.038;4.640;2022-08-01T10:09:53;102012.22;;;22.89;65.11
67457;BME280;54319;52.038;4.640;2022-08-01T10:12:22;102016.28;;;23.18;63.40
67457;BME280;54319;52.038;4.640;2022-08-01T10:14:50;102005.59;;;23.18;63.73
67457;BME280;54319;52.038;4.640;2022-08-01T10:17:24;102016.66;;;23.11;63.52
67457;BME280;54319;52.038;4.640;2022-08-01T10:19:52;102009.13;;;23.00;61.31
67457;BME280;54319;52.038;4.640;2022-08-01T10:22:23;102013.69;;;22.96;62.58
67457;BME280;54319;52.038;4.640;2022-08-01T10:24:55;102016.34;;;22.96;60.82
67457;BME280;54319;52.038;4.640;2022-08-01T10:27:24;102010.22;;;22.94;61.57
67457;BME280;54319;52.038;4.640;2022-08-01T10:29:55;102005.44;;;22.82;59.90
67457;BME280;54319;52.038;4.640;2022-08-01T10:32:24;102005.44;;;22.82;59.71
67457;BME280;54319;52.038;4.640;2022-08-01T10:34:50;102015.84;;;22.88;62.38
67457;BME280;54319;52.038;4.640;2022-08-01T10:37:19;102021.09;;;22.90;62.14
67457;BME280;54319;52.038;4.640;2022-08-01T10:39:47;102022.47;;;22.79;60.66
67457;BME280;54319;52.038;4.640;2022-08-01T10:42:14;102024.00;;;22.64;60.92
67457;BME280;54319;52.038;4.640;2022-08-01T10:44:41;102023.19;;;22.42;62.37
67457;BME280;54319;52.038;4.640;2022-08-01T10:47:13;102027.31;;;22.29;63.10
67457;BME280;54319;52.038;4.640;2022-08-01T10:49:43;102024.53;;;22.30;65.15
67457;BME280;54319;52.038;4.640;2022-08-01T10:52:16;102017.41;;;22.53;62.85
67457;BME280;54319;52.038;4.640;2022-08-01T10:54:42;102016.31;;;22.57;63.57
67457;BME280;54319;52.038;4.640;2022-08-01T10:57:10;102018.59;;;22.66;64.86
67457;BME280;54319;52.038;4.640;2022-08-01T10:59:48;102014.56;;;22.76;61.36
67457;BME280;54319;52.038;4.640;2022-08-01T11:02:29;102020.13;;;22.72;60.63
67457;BME280;54319;52.038;4.640;2022-08-01T11:05:01;102019.00;;;22.77;61.19
67457;BME280;54319;52.038;4.640;2022-08-01T11:07:42;102025.19;;;22.98;62.38
67457;BME280;54319;52.038;4.640;2022-08-01T11:10:19;102027.66;;;23.23;60.92
67457;BME280;54319;52.038;4.640;2022-08-01T11:12:47;102039.25;;;23.43;62.66
67457;BME280;54319;52.038;4.640;2022-08-01T11:17:55;102043.28;;;23.33;58.68
67457;BME280;54319;52.038;4.640;2022-08-01T11:20:23;102032.28;;;23.20;60.29
67457;BME280;54319;52.038;4.640;2022-08-01T11:23:24;102030.94;;;23.10;61.73
67457;BME280;54319;52.038;4.640;2022-08-01T11:26:10;102035.25;;;23.33;63.50
67457;BME280;54319;52.038;4.640;2022-08-01T11:28:40;102037.81;;;23.74;62.57
67457;BME280;54319;52.038;4.640;2022-08-01T11:31:28;102030.84;;;24.07;58.78
67457;BME280;54319;52.038;4.640;2022-08-01T11:33:55;102041.56;;;24.07;56.79
67457;BME280;54319;52.038;4.640;2022-08-01T11:36:22;102034.34;;;23.72;57.26
67457;BME280;54319;52.038;4.640;2022-08-01T11:39:18;102031.94;;;23.46;58.70
67457;BME280;54319;52.038;4.640;2022-08-01T11:41:47;102031.81;;;23.50;57.66
67457;BME280;54319;52.038;4.640;2022-08-01T11:44:24;102027.25;;;23.71;55.74
67457;BME280;54319;52.038;4.640;2022-08-01T11:46:55;102026.13;;;24.13;57.48
67457;BME280;54319;52.038;4.640;2022-08-01T11:49:45;102027.13;;;24.46;55.43
67457;BME280;54319;52.038;4.640;2022-08-01T11:52:14;102029.34;;;24.90;54.05
67457;BME280;54319;52.038;4.640;2022-08-01T11:54:43;102029.06;;;25.30;52.36
67457;BME280;54319;52.038;4.640;2022-08-01T11:57:12;102028.56;;;25.55;50.83
67457;BME280;54319;52.038;4.640;2022-08-01T11:59:42;102038.63;;;25.67;51.96
67457;BME280;54319;52.038;4.640;2022-08-01T12:02:24;102042.53;;;25.28;53.29
67457;BME280;54319;52.038;4.640;2022-08-01T12:04:55;102040.19;;;25.05;54.19
67457;BME280;54319;52.038;4.640;2022-08-01T12:07:24;102036.94;;;25.16;53.67
67457;BME280;54319;52.038;4.640;2022-08-01T12:09:59;102035.28;;;25.13;53.57
67457;BME280;54319;52.038;4.640;2022-08-01T12:12:28;102033.03;;;25.05;53.77
67457;BME280;54319;52.038;4.640;2022-08-01T12:14:59;102040.03;;;25.08;49.80
67457;BME280;54319;52.038;4.640;2022-08-01T12:17:31;102043.97;;;25.01;50.87
67457;BME280;54319;52.038;4.640;2022-08-01T12:19:59;102046.97;;;25.12;50.93
67457;BME280;54319;52.038;4.640;2022-08-01T12:22:26;102046.19;;;25.27;50.06
67457;BME280;54319;52.038;4.640;2022-08-01T12:24:53;102042.34;;;25.31;49.64
67457;BME280;54319;52.038;4.640;2022-08-01T12:27:25;102049.00;;;25.07;48.38
67457;BME280;54319;52.038;4.640;2022-08-01T12:29:52;102049.34;;;25.01;50.44
67457;BME280;54319;52.038;4.640;2022-08-01T12:32:27;102040.09;;;25.06;49.54
67457;BME280;54319;52.038;4.640;2022-08-01T12:34:57;102048.25;;;24.87;46.50
67457;BME280;54319;52.038;4.640;2022-08-01T12:37:27;102040.69;;;24.61;45.94
67457;BME280;54319;52.038;4.640;2022-08-01T12:39:54;102042.53;;;24.41;48.58
67457;BME280;54319;52.038;4.640;2022-08-01T12:42:22;102052.13;;;24.28;49.07
67457;BME280;54319;52.038;4.640;2022-08-01T12:44:51;102046.84;;;24.09;50.06
67457;BME280;54319;52.038;4.640;2022-08-01T12:47:20;102045.53;;;23.99;51.13
67457;BME280;54319;52.038;4.640;2022-08-01T12:49:49;102042.41;;;24.08;53.81
67457;BME280;54319;52.038;4.640;2022-08-01T12:52:16;102047.75;;;24.44;53.19
67457;BME280;54319;52.038;4.640;2022-08-01T12:55:07;102044.56;;;24.90;50.93
67457;BME280;54319;52.038;4.640;2022-08-01T12:57:37;102044.34;;;25.28;48.39